createdAt,value
2023-03-20T00:03:01.022Z,7.10
2023-03-20T00:08:09.378Z,7.00
2023-03-20T00:13:28.071Z,7.20
2023-03-20T00:18:36.784Z,7.10
2023-03-20T00:23:43.650Z,7.30
2023-03-20T00:28:52.541Z,7.50
2023-03-20T00:34:02.231Z,7.30
2023-03-20T00:39:09.262Z,7.40
2023-03-20T00:44:32.239Z,7.30
2023-03-20T00:49:39.445Z,7.30
2023-03-20T00:54:46.252Z,7.20
2023-03-20T01:00:06.137Z,6.90
2023-03-20T01:05:13.371Z,7.00
2023-03-20T01:10:20.889Z,7.40
2023-03-20T01:15:34.431Z,7.30
2023-03-20T01:20:42.053Z,7.30
2023-03-20T01:25:49.103Z,7.40
2023-03-20T01:30:56.585Z,7.50
2023-03-20T01:36:03.959Z,7.50
2023-03-20T01:41:18.387Z,7.60
2023-03-20T01:46:33.450Z,7.90
2023-03-20T01:51:40.218Z,7.50
2023-03-20T01:56:56.695Z,7.50
2023-03-20T02:02:03.941Z,7.60
2023-03-20T02:07:13.086Z,7.60
2023-03-20T02:12:21.958Z,7.60
2023-03-20T02:17:29.557Z,7.60
2023-03-20T02:22:41.052Z,7.50
2023-03-20T02:28:17.835Z,7.40
2023-03-20T02:33:44.059Z,7.50
2023-03-20T02:39:04.246Z,7.70
2023-03-20T02:44:30.132Z,7.70
2023-03-20T02:49:49.904Z,7.70
2023-03-20T02:55:28.183Z,7.70
2023-03-20T03:00:46.862Z,7.70
2023-03-20T03:06:10.398Z,7.70
2023-03-20T03:11:17.781Z,7.50
2023-03-20T03:16:28.966Z,7.50
2023-03-20T03:21:38.512Z,7.40
2023-03-20T03:26:45.280Z,7.50
2023-03-20T03:31:52.675Z,7.60
2023-03-20T03:37:09.954Z,7.70
2023-03-20T03:42:31.982Z,7.50
2023-03-20T03:47:57.888Z,7.70
2023-03-20T03:53:09.089Z,7.60
2023-03-20T03:58:23.012Z,7.90
2023-03-20T04:03:34.581Z,7.80
2023-03-20T04:08:43.626Z,7.50
2023-03-20T04:13:52.518Z,7.60
2023-03-20T04:18:59.541Z,7.80
2023-03-20T04:24:07.104Z,7.80
2023-03-20T04:29:13.824Z,7.90
2023-03-20T04:34:20.664Z,7.90
2023-03-20T04:39:27.360Z,8.00
2023-03-20T04:44:35.202Z,8.10
2023-03-20T04:49:41.886Z,7.90
2023-03-20T04:54:48.654Z,8.00
2023-03-20T04:59:55.852Z,8.10
2023-03-20T05:05:02.460Z,8.00
2023-03-20T05:10:09.950Z,7.90
2023-03-20T05:15:16.573Z,7.80
2023-03-20T05:20:23.213Z,7.80
2023-03-20T05:25:30.176Z,8.00
2023-03-20T05:30:37.526Z,8.00
2023-03-20T05:35:45.036Z,8.10
2023-03-20T05:40:52.333Z,8.10
2023-03-20T05:45:59.752Z,8.40
2023-03-20T05:51:07.291Z,8.50
2023-03-20T05:56:14.356Z,8.60
2023-03-20T06:01:22.015Z,8.60
2023-03-20T06:06:28.918Z,8.70
2023-03-20T06:11:37.710Z,8.90
2023-03-20T06:16:44.584Z,9.00
2023-03-20T06:21:52.340Z,9.20
2023-03-20T06:26:59.471Z,9.30
2023-03-20T06:32:11.985Z,9.30
2023-03-20T06:37:18.676Z,9.50
2023-03-20T06:42:25.395Z,9.60
2023-03-20T06:47:32.091Z,9.50
2023-03-20T06:52:38.853Z,9.60
2023-03-20T06:57:45.640Z,9.40
2023-03-20T07:02:52.325Z,9.40
2023-03-20T07:07:59.232Z,9.50
2023-03-20T07:13:06.345Z,9.50
2023-03-20T07:18:13.018Z,9.60
2023-03-20T07:23:20.801Z,9.80
2023-03-20T07:28:27.599Z,9.90
2023-03-20T07:33:34.245Z,9.80
2023-03-20T07:38:42.357Z,9.80
2023-03-20T07:43:49.083Z,9.80
2023-03-20T07:48:57.472Z,9.90
2023-03-20T07:54:04.287Z,9.90
2023-03-20T07:59:11.539Z,9.80
2023-03-20T08:04:20.150Z,9.90
2023-03-20T08:09:27.335Z,10.10
2023-03-20T08:14:34.130Z,10.30
2023-03-20T08:19:40.809Z,10.50
2023-03-20T08:24:47.502Z,10.30
2023-03-20T08:29:54.209Z,10.20
2023-03-20T08:35:01.048Z,10.20
2023-03-20T08:40:09.385Z,10.40
2023-03-20T08:45:17.890Z,10.30
2023-03-20T08:50:26.726Z,10.40
2023-03-20T08:55:33.932Z,10.40
2023-03-20T09:00:40.820Z,10.40
2023-03-20T09:05:49.724Z,10.40
2023-03-20T09:10:57.825Z,10.50
2023-03-20T09:16:04.719Z,10.60
2023-03-20T09:21:11.458Z,10.60
2023-03-20T09:26:18.151Z,10.80
2023-03-20T09:31:24.972Z,11.00
2023-03-20T09:36:31.691Z,11.10
2023-03-20T09:41:53.216Z,11.20
2023-03-20T09:47:18.970Z,11.20
2023-03-20T09:52:36.103Z,11.30
2023-03-20T09:57:47.267Z,11.40
2023-03-20T10:03:06.939Z,10.90
2023-03-20T10:08:20.185Z,11.00
2023-03-20T10:14:02.628Z,11.20
2023-03-20T10:19:26.443Z,11.00
2023-03-20T10:24:43.196Z,11.00
2023-03-20T10:29:57.514Z,10.90
2023-03-20T10:35:33.839Z,11.00
2023-03-20T10:40:42.677Z,11.10
2023-03-20T10:45:53.347Z,11.20
2023-03-20T10:51:03.527Z,11.30
2023-03-20T10:56:16.972Z,11.30
2023-03-20T11:01:23.441Z,11.60
2023-03-20T11:06:33.046Z,11.40
2023-03-20T11:11:43.192Z,11.50
2023-03-20T11:16:55.906Z,11.90
2023-03-20T11:22:10.063Z,11.90
2023-03-20T11:27:28.126Z,12.00
2023-03-20T11:32:39.093Z,12.20
2023-03-20T11:37:52.377Z,12.30
2023-03-20T11:43:05.780Z,12.20
2023-03-20T11:48:28.781Z,12.40
2023-03-20T11:53:40.114Z,12.60
2023-03-20T11:59:15.417Z,12.90
2023-03-20T12:04:41.696Z,12.90
2023-03-20T12:10:10.881Z,13.30
2023-03-20T12:15:27.742Z,13.40
2023-03-20T12:20:56.877Z,13.50
2023-03-20T12:26:32.029Z,13.50
2023-03-20T12:31:55.354Z,13.10
2023-03-20T12:37:02.553Z,13.30
2023-03-20T12:42:31.585Z,13.10
2023-03-20T12:47:45.762Z,12.70
2023-03-20T12:53:03.013Z,12.70
2023-03-20T12:58:20.308Z,12.80
2023-03-20T13:03:52.026Z,12.70
2023-03-20T13:09:42.987Z,13.00
2023-03-20T13:15:24.704Z,12.80
2023-03-20T13:20:38.798Z,13.10
2023-03-20T13:26:18.282Z,13.30
2023-03-20T13:31:47.638Z,13.10
2023-03-20T13:37:25.897Z,13.30
2023-03-20T13:42:31.345Z,13.20
2023-03-20T13:47:40.434Z,13.10
2023-03-20T13:53:04.565Z,13.20
2023-03-20T13:58:39.750Z,13.30
2023-03-20T14:03:49.268Z,13.10
2023-03-20T14:08:57.271Z,13.40
2023-03-20T14:14:23.151Z,13.30
2023-03-20T14:19:31.636Z,13.30
2023-03-20T14:24:41.690Z,13.30
2023-03-20T14:29:49.382Z,13.30
2023-03-20T14:35:24.602Z,13.00
2023-03-20T14:40:35.738Z,13.00
2023-03-20T14:46:11.257Z,13.10
2023-03-20T14:51:40.578Z,13.10
2023-03-20T14:56:47.352Z,13.00
2023-03-20T15:02:02.340Z,13.20
2023-03-20T15:07:25.223Z,13.30
2023-03-20T15:12:37.819Z,13.20
2023-03-20T15:17:49.155Z,12.70
2023-03-20T15:23:05.339Z,12.90
2023-03-20T15:28:27.469Z,12.60
2023-03-20T15:33:42.465Z,12.20
2023-03-20T15:38:51.074Z,11.80
2023-03-20T15:44:19.419Z,11.70
2023-03-20T15:49:27.094Z,11.60
2023-03-20T15:54:35.651Z,11.70
2023-03-20T15:59:43.355Z,11.80
2023-03-20T16:04:54.950Z,11.90
2023-03-20T16:10:03.248Z,11.80
2023-03-20T16:15:14.333Z,11.60
2023-03-20T16:20:22.341Z,11.60
2023-03-20T16:25:29.338Z,11.50
2023-03-20T16:30:37.998Z,11.50
2023-03-20T16:35:52.762Z,11.40
2023-03-20T16:41:17.633Z,11.40
2023-03-20T16:46:27.994Z,11.30
2023-03-20T16:51:34.900Z,11.20
2023-03-20T16:56:41.854Z,11.10
2023-03-20T17:01:52.451Z,11.10
2023-03-20T17:07:03.601Z,11.20
2023-03-20T17:12:19.772Z,11.20
2023-03-20T17:17:28.107Z,10.90
2023-03-20T17:22:35.349Z,10.90
2023-03-20T17:27:42.504Z,11.10
2023-03-20T17:32:49.973Z,10.80
2023-03-20T17:37:57.279Z,10.60
2023-03-20T17:43:04.411Z,10.60
2023-03-20T17:48:21.223Z,10.60
2023-03-20T17:53:30.492Z,10.70
2023-03-20T17:58:37.391Z,10.70
2023-03-20T18:03:44.385Z,10.70
2023-03-20T18:08:51.252Z,10.70
2023-03-20T18:13:58.184Z,10.60
2023-03-20T18:19:05.418Z,10.40
2023-03-20T18:24:12.216Z,10.40
2023-03-20T18:29:19.437Z,10.50
2023-03-20T18:34:26.735Z,10.50
2023-03-20T18:39:33.883Z,10.30
2023-03-20T18:44:40.757Z,10.20
2023-03-20T18:49:47.486Z,10.10
2023-03-20T18:54:54.306Z,10.10
2023-03-20T19:00:01.312Z,10.10
2023-03-20T19:05:08.785Z,10.00
2023-03-20T19:10:40.502Z,9.80
2023-03-20T19:15:48.679Z,9.70
2023-03-20T19:20:58.309Z,9.60
2023-03-20T19:26:05.020Z,9.40
2023-03-20T19:31:12.402Z,9.20
2023-03-20T19:36:34.838Z,9.30
2023-03-20T19:41:41.948Z,9.30
2023-03-20T19:46:49.944Z,9.20
2023-03-20T19:51:56.980Z,9.20
2023-03-20T19:57:03.742Z,9.20
2023-03-20T20:02:13.263Z,9.10
2023-03-20T20:08:06.215Z,9.10
2023-03-20T20:12:30.130Z,8.90
2023-03-20T20:17:37.192Z,8.70
2023-03-20T20:22:44.297Z,8.60
2023-03-20T20:27:51.034Z,8.70
2023-03-20T20:33:03.426Z,8.80
2023-03-20T20:38:37.004Z,8.70
2023-03-20T20:43:39.002Z,8.60
2023-03-20T20:48:24.669Z,8.40
2023-03-20T20:53:31.653Z,8.30
2023-03-20T20:58:38.827Z,8.40
2023-03-20T21:03:45.857Z,8.50
2023-03-20T21:08:52.850Z,8.50
2023-03-20T21:13:59.600Z,8.50
2023-03-20T21:19:06.829Z,8.40
2023-03-20T21:24:31.564Z,8.40
2023-03-20T21:29:23.194Z,8.30
2023-03-20T21:34:30.744Z,8.20
2023-03-20T21:39:38.981Z,8.20
2023-03-20T21:45:46.258Z,8.30
2023-03-20T21:55:57.519Z,8.30
2023-03-20T22:06:21.088Z,8.00
2023-03-20T22:16:31.270Z,8.20
2023-03-20T22:21:41.888Z,8.10
2023-03-20T22:27:05.332Z,8.20
2023-03-20T22:46:48.068Z,8.10
2023-03-20T22:57:04.231Z,8.00
2023-03-20T23:02:10.917Z,8.00
2023-03-20T23:07:17.862Z,7.80
2023-03-20T23:12:24.815Z,7.60
2023-03-20T23:17:31.892Z,7.50
2023-03-20T23:22:38.855Z,7.70
2023-03-20T23:27:45.603Z,7.50
2023-03-20T23:32:52.603Z,7.60
2023-03-20T23:37:59.358Z,7.70
2023-03-20T23:43:06.343Z,7.80
2023-03-20T23:48:14.203Z,7.70
2023-03-20T23:53:21.554Z,7.80
2023-03-20T23:58:30.972Z,7.90
